sensor_id;sensor_type;location;lat;lon;timestamp;P1;durP1;ratioP1;P2;durP2;ratioP2
28176;SDS011;15461;41.652;9.378;2023-04-30T00:01:59;26.27;;;7.28;;
28176;SDS011;15461;41.652;9.378;2023-04-30T00:04:24;20.02;;;7.07;;
28176;SDS011;15461;41.652;9.378;2023-04-30T00:06:50;13.82;;;6.43;;
28176;SDS011;15461;41.652;9.378;2023-04-30T00:09:16;18.52;;;7.10;;
28176;SDS011;15461;41.652;9.378;2023-04-30T00:11:42;17.13;;;7.28;;
28176;SDS011;15461;41.652;9.378;2023-04-30T00:14:08;18.15;;;7.13;;
28176;SDS011;15461;41.652;9.378;2023-04-30T00:16:34;21.42;;;7.57;;
28176;SDS011;15461;41.652;9.378;2023-04-30T00:19:00;17.15;;;7.25;;
28176;SDS011;15461;41.652;9.378;2023-04-30T00:21:26;20.42;;;7.53;;
28176;SDS011;15461;41.652;9.378;2023-04-30T00:23:52;20.00;;;7.00;;
28176;SDS011;15461;41.652;9.378;2023-04-30T00:26:18;14.45;;;6.85;;
28176;SDS011;15461;41.652;9.378;2023-04-30T00:28:46;15.95;;;6.65;;
28176;SDS011;15461;41.652;9.378;2023-04-30T00:31:12;16.98;;;6.53;;
28176;SDS011;15461;41.652;9.378;2023-04-30T00:33:38;20.10;;;7.32;;
28176;SDS011;15461;41.652;9.378;2023-04-30T00:36:04;17.70;;;6.40;;
28176;SDS011;15461;41.652;9.378;2023-04-30T00:38:31;13.85;;;6.75;;
28176;SDS011;15461;41.652;9.378;2023-04-30T00:40:57;14.15;;;6.40;;
28176;SDS011;15461;41.652;9.378;2023-04-30T00:43:23;17.83;;;6.93;;
28176;SDS011;15461;41.652;9.378;2023-04-30T00:45:49;14.38;;;6.88;;
28176;SDS011;15461;41.652;9.378;2023-04-30T00:48:15;18.73;;;7.03;;
28176;SDS011;15461;41.652;9.378;2023-04-30T00:50:41;19.80;;;6.97;;
28176;SDS011;15461;41.652;9.378;2023-04-30T00:53:12;19.33;;;7.10;;
28176;SDS011;15461;41.652;9.378;2023-04-30T00:55:39;19.85;;;5.95;;
28176;SDS011;15461;41.652;9.378;2023-04-30T00:58:06;17.63;;;6.03;;
28176;SDS011;15461;41.652;9.378;2023-04-30T01:00:33;16.33;;;6.38;;
28176;SDS011;15461;41.652;9.378;2023-04-30T01:03:00;19.05;;;6.75;;
28176;SDS011;15461;41.652;9.378;2023-04-30T01:05:26;15.13;;;6.72;;
28176;SDS011;15461;41.652;9.378;2023-04-30T01:07:53;16.08;;;6.57;;
28176;SDS011;15461;41.652;9.378;2023-04-30T01:10:20;13.82;;;6.40;;
28176;SDS011;15461;41.652;9.378;2023-04-30T01:18:22;16.25;;;6.63;;
28176;SDS011;15461;41.652;9.378;2023-04-30T01:21:03;14.18;;;6.65;;
28176;SDS011;15461;41.652;9.378;2023-04-30T01:26:47;19.20;;;6.40;;
28176;SDS011;15461;41.652;9.378;2023-04-30T01:29:20;16.95;;;7.40;;
28176;SDS011;15461;41.652;9.378;2023-04-30T01:31:46;16.17;;;7.00;;
28176;SDS011;15461;41.652;9.378;2023-04-30T01:34:12;15.13;;;6.65;;
28176;SDS011;15461;41.652;9.378;2023-04-30T01:36:49;12.38;;;6.63;;
28176;SDS011;15461;41.652;9.378;2023-04-30T01:39:43;18.02;;;6.95;;
28176;SDS011;15461;41.652;9.378;2023-04-30T01:42:24;13.40;;;6.28;;
28176;SDS011;15461;41.652;9.378;2023-04-30T01:48:15;20.10;;;6.65;;
28176;SDS011;15461;41.652;9.378;2023-04-30T01:51:00;16.98;;;6.38;;
28176;SDS011;15461;41.652;9.378;2023-04-30T01:53:37;17.33;;;6.07;;
28176;SDS011;15461;41.652;9.378;2023-04-30T01:56:09;15.80;;;6.43;;
28176;SDS011;15461;41.652;9.378;2023-04-30T01:58:56;14.15;;;6.35;;
28176;SDS011;15461;41.652;9.378;2023-04-30T02:01:27;15.82;;;6.95;;
28176;SDS011;15461;41.652;9.378;2023-04-30T02:03:55;18.70;;;6.85;;
28176;SDS011;15461;41.652;9.378;2023-04-30T02:06:22;16.95;;;6.50;;
28176;SDS011;15461;41.652;9.378;2023-04-30T02:08:53;18.73;;;6.70;;
28176;SDS011;15461;41.652;9.378;2023-04-30T02:11:19;18.38;;;6.05;;
28176;SDS011;15461;41.652;9.378;2023-04-30T02:13:45;12.43;;;6.10;;
28176;SDS011;15461;41.652;9.378;2023-04-30T02:16:11;15.48;;;6.22;;
28176;SDS011;15461;41.652;9.378;2023-04-30T02:18:37;15.77;;;6.13;;
28176;SDS011;15461;41.652;9.378;2023-04-30T02:21:03;15.85;;;6.18;;
28176;SDS011;15461;41.652;9.378;2023-04-30T02:23:29;12.30;;;6.20;;
28176;SDS011;15461;41.652;9.378;2023-04-30T02:25:55;16.65;;;6.32;;
28176;SDS011;15461;41.652;9.378;2023-04-30T02:28:21;13.35;;;7.15;;
28176;SDS011;15461;41.652;9.378;2023-04-30T02:30:47;14.70;;;6.07;;
28176;SDS011;15461;41.652;9.378;2023-04-30T02:33:15;15.35;;;6.55;;
28176;SDS011;15461;41.652;9.378;2023-04-30T02:35:41;14.82;;;6.45;;
28176;SDS011;15461;41.652;9.378;2023-04-30T02:38:07;16.00;;;6.68;;
28176;SDS011;15461;41.652;9.378;2023-04-30T02:40:32;16.15;;;6.13;;
28176;SDS011;15461;41.652;9.378;2023-04-30T02:42:58;13.93;;;5.97;;
28176;SDS011;15461;41.652;9.378;2023-04-30T02:45:25;21.95;;;7.03;;
28176;SDS011;15461;41.652;9.378;2023-04-30T02:47:51;17.77;;;6.13;;
28176;SDS011;15461;41.652;9.378;2023-04-30T02:50:17;16.95;;;6.00;;
28176;SDS011;15461;41.652;9.378;2023-04-30T02:52:44;12.48;;;6.00;;
28176;SDS011;15461;41.652;9.378;2023-04-30T02:55:11;14.02;;;6.40;;
28176;SDS011;15461;41.652;9.378;2023-04-30T02:57:38;12.40;;;6.00;;
28176;SDS011;15461;41.652;9.378;2023-04-30T03:00:04;14.48;;;5.88;;
28176;SDS011;15461;41.652;9.378;2023-04-30T03:02:30;13.80;;;5.55;;
28176;SDS011;15461;41.652;9.378;2023-04-30T03:04:56;12.23;;;5.55;;
28176;SDS011;15461;41.652;9.378;2023-04-30T03:07:22;18.55;;;6.30;;
28176;SDS011;15461;41.652;9.378;2023-04-30T03:09:48;17.23;;;6.22;;
28176;SDS011;15461;41.652;9.378;2023-04-30T03:12:14;14.13;;;5.85;;
28176;SDS011;15461;41.652;9.378;2023-04-30T03:14:40;17.08;;;5.68;;
28176;SDS011;15461;41.652;9.378;2023-04-30T03:17:06;16.30;;;6.05;;
28176;SDS011;15461;41.652;9.378;2023-04-30T03:19:32;16.98;;;6.03;;
28176;SDS011;15461;41.652;9.378;2023-04-30T03:21:58;23.33;;;5.80;;
28176;SDS011;15461;41.652;9.378;2023-04-30T03:24:24;14.05;;;5.80;;
28176;SDS011;15461;41.652;9.378;2023-04-30T03:26:50;14.10;;;6.07;;
28176;SDS011;15461;41.652;9.378;2023-04-30T03:29:16;16.60;;;5.22;;
28176;SDS011;15461;41.652;9.378;2023-04-30T03:31:42;13.77;;;5.60;;
28176;SDS011;15461;41.652;9.378;2023-04-30T03:34:08;14.07;;;5.78;;
28176;SDS011;15461;41.652;9.378;2023-04-30T03:36:34;12.10;;;4.55;;
28176;SDS011;15461;41.652;9.378;2023-04-30T03:39:00;11.68;;;5.10;;
28176;SDS011;15461;41.652;9.378;2023-04-30T03:41:26;16.90;;;5.30;;
28176;SDS011;15461;41.652;9.378;2023-04-30T03:43:52;14.63;;;5.50;;
28176;SDS011;15461;41.652;9.378;2023-04-30T03:46:18;11.75;;;5.35;;
28176;SDS011;15461;41.652;9.378;2023-04-30T03:48:46;15.82;;;5.22;;
28176;SDS011;15461;41.652;9.378;2023-04-30T03:51:12;16.02;;;5.82;;
28176;SDS011;15461;41.652;9.378;2023-04-30T03:53:38;16.77;;;5.90;;
28176;SDS011;15461;41.652;9.378;2023-04-30T03:56:04;15.25;;;5.38;;
28176;SDS011;15461;41.652;9.378;2023-04-30T03:58:31;10.05;;;5.38;;
28176;SDS011;15461;41.652;9.378;2023-04-30T04:00:57;11.10;;;5.60;;
28176;SDS011;15461;41.652;9.378;2023-04-30T04:03:23;19.80;;;6.35;;
28176;SDS011;15461;41.652;9.378;2023-04-30T04:05:49;15.23;;;5.38;;
28176;SDS011;15461;41.652;9.378;2023-04-30T04:08:16;18.88;;;5.78;;
28176;SDS011;15461;41.652;9.378;2023-04-30T04:10:42;18.35;;;5.60;;
28176;SDS011;15461;41.652;9.378;2023-04-30T04:13:08;13.05;;;5.63;;
28176;SDS011;15461;41.652;9.378;2023-04-30T04:15:35;15.57;;;5.95;;
28176;SDS011;15461;41.652;9.378;2023-04-30T04:18:02;12.20;;;5.47;;
28176;SDS011;15461;41.652;9.378;2023-04-30T04:20:28;11.10;;;5.18;;
28176;SDS011;15461;41.652;9.378;2023-04-30T04:22:54;15.00;;;6.10;;
28176;SDS011;15461;41.652;9.378;2023-04-30T04:25:21;13.35;;;5.20;;
28176;SDS011;15461;41.652;9.378;2023-04-30T04:27:49;13.95;;;5.80;;
28176;SDS011;15461;41.652;9.378;2023-04-30T04:30:16;13.82;;;5.32;;
28176;SDS011;15461;41.652;9.378;2023-04-30T04:32:43;10.40;;;5.57;;
28176;SDS011;15461;41.652;9.378;2023-04-30T04:35:14;14.45;;;5.50;;
28176;SDS011;15461;41.652;9.378;2023-04-30T04:37:41;13.82;;;5.47;;
28176;SDS011;15461;41.652;9.378;2023-04-30T04:40:07;17.67;;;5.40;;
28176;SDS011;15461;41.652;9.378;2023-04-30T04:42:35;17.63;;;5.68;;
28176;SDS011;15461;41.652;9.378;2023-04-30T04:45:02;14.82;;;5.32;;
28176;SDS011;15461;41.652;9.378;2023-04-30T04:47:30;12.02;;;5.30;;
28176;SDS011;15461;41.652;9.378;2023-04-30T04:49:57;15.48;;;5.15;;
28176;SDS011;15461;41.652;9.378;2023-04-30T04:52:23;13.75;;;5.68;;
28176;SDS011;15461;41.652;9.378;2023-04-30T04:54:50;11.60;;;4.78;;
28176;SDS011;15461;41.652;9.378;2023-04-30T04:57:17;12.70;;;5.10;;
28176;SDS011;15461;41.652;9.378;2023-04-30T04:59:43;9.05;;;4.55;;
28176;SDS011;15461;41.652;9.378;2023-04-30T05:02:09;12.23;;;5.00;;
28176;SDS011;15461;41.652;9.378;2023-04-30T05:04:35;11.48;;;4.95;;
28176;SDS011;15461;41.652;9.378;2023-04-30T05:07:01;12.32;;;5.78;;
28176;SDS011;15461;41.652;9.378;2023-04-30T05:09:27;11.02;;;5.28;;
28176;SDS011;15461;41.652;9.378;2023-04-30T05:11:53;14.43;;;5.47;;
28176;SDS011;15461;41.652;9.378;2023-04-30T05:14:19;12.93;;;5.07;;
28176;SDS011;15461;41.652;9.378;2023-04-30T05:16:45;12.93;;;5.25;;
28176;SDS011;15461;41.652;9.378;2023-04-30T05:19:12;12.98;;;5.30;;
28176;SDS011;15461;41.652;9.378;2023-04-30T05:21:37;12.63;;;5.25;;
28176;SDS011;15461;41.652;9.378;2023-04-30T05:24:04;18.17;;;5.25;;
28176;SDS011;15461;41.652;9.378;2023-04-30T05:26:30;16.15;;;4.90;;
28176;SDS011;15461;41.652;9.378;2023-04-30T05:28:56;10.57;;;5.15;;
28176;SDS011;15461;41.652;9.378;2023-04-30T05:31:22;12.68;;;5.15;;
28176;SDS011;15461;41.652;9.378;2023-04-30T05:33:48;14.55;;;4.90;;
28176;SDS011;15461;41.652;9.378;2023-04-30T05:36:13;11.30;;;4.88;;
28176;SDS011;15461;41.652;9.378;2023-04-30T05:38:39;14.90;;;5.22;;
28176;SDS011;15461;41.652;9.378;2023-04-30T05:41:06;15.18;;;5.90;;
28176;SDS011;15461;41.652;9.378;2023-04-30T05:43:32;16.27;;;5.80;;
28176;SDS011;15461;41.652;9.378;2023-04-30T05:45:58;15.90;;;6.20;;
28176;SDS011;15461;41.652;9.378;2023-04-30T05:48:24;16.08;;;6.40;;
28176;SDS011;15461;41.652;9.378;2023-04-30T05:50:50;16.08;;;6.28;;
28176;SDS011;15461;41.652;9.378;2023-04-30T05:53:16;14.05;;;5.97;;
28176;SDS011;15461;41.652;9.378;2023-04-30T05:55:42;24.27;;;6.53;;
28176;SDS011;15461;41.652;9.378;2023-04-30T05:58:08;15.32;;;5.30;;
28176;SDS011;15461;41.652;9.378;2023-04-30T06:00:33;11.88;;;5.38;;
28176;SDS011;15461;41.652;9.378;2023-04-30T06:03:00;16.55;;;5.90;;
28176;SDS011;15461;41.652;9.378;2023-04-30T06:05:26;13.68;;;5.70;;
28176;SDS011;15461;41.652;9.378;2023-04-30T06:07:52;17.50;;;5.50;;
28176;SDS011;15461;41.652;9.378;2023-04-30T06:10:18;15.32;;;5.78;;
28176;SDS011;15461;41.652;9.378;2023-04-30T06:12:44;19.70;;;5.70;;
28176;SDS011;15461;41.652;9.378;2023-04-30T06:15:09;14.73;;;6.05;;
28176;SDS011;15461;41.652;9.378;2023-04-30T06:17:35;13.30;;;5.53;;
28176;SDS011;15461;41.652;9.378;2023-04-30T06:20:01;12.45;;;5.53;;
28176;SDS011;15461;41.652;9.378;2023-04-30T06:22:31;16.80;;;5.30;;
28176;SDS011;15461;41.652;9.378;2023-04-30T06:24:57;16.10;;;5.32;;
28176;SDS011;15461;41.652;9.378;2023-04-30T06:27:26;13.48;;;5.55;;
28176;SDS011;15461;41.652;9.378;2023-04-30T06:29:52;14.93;;;5.20;;
28176;SDS011;15461;41.652;9.378;2023-04-30T06:32:18;11.02;;;4.97;;
28176;SDS011;15461;41.652;9.378;2023-04-30T06:34:45;16.20;;;4.40;;
28176;SDS011;15461;41.652;9.378;2023-04-30T06:37:10;8.70;;;4.55;;
28176;SDS011;15461;41.652;9.378;2023-04-30T06:39:36;16.38;;;4.93;;
28176;SDS011;15461;41.652;9.378;2023-04-30T06:42:02;9.13;;;4.50;;
28176;SDS011;15461;41.652;9.378;2023-04-30T06:44:28;11.90;;;4.70;;
28176;SDS011;15461;41.652;9.378;2023-04-30T06:46:54;12.18;;;4.57;;
28176;SDS011;15461;41.652;9.378;2023-04-30T06:49:20;15.82;;;5.80;;
28176;SDS011;15461;41.652;9.378;2023-04-30T06:51:46;13.05;;;4.85;;
28176;SDS011;15461;41.652;9.378;2023-04-30T06:54:11;11.35;;;5.05;;
28176;SDS011;15461;41.652;9.378;2023-04-30T06:56:38;11.30;;;4.60;;
28176;SDS011;15461;41.652;9.378;2023-04-30T06:59:04;14.18;;;4.78;;
28176;SDS011;15461;41.652;9.378;2023-04-30T07:01:30;13.80;;;5.22;;
28176;SDS011;15461;41.652;9.378;2023-04-30T07:03:56;18.13;;;5.65;;
28176;SDS011;15461;41.652;9.378;2023-04-30T07:06:22;10.68;;;5.15;;
28176;SDS011;15461;41.652;9.378;2023-04-30T07:08:47;16.52;;;5.45;;
28176;SDS011;15461;41.652;9.378;2023-04-30T07:11:13;22.60;;;5.15;;
28176;SDS011;15461;41.652;9.378;2023-04-30T07:13:39;17.98;;;5.20;;
28176;SDS011;15461;41.652;9.378;2023-04-30T07:16:05;16.60;;;5.88;;
28176;SDS011;15461;41.652;9.378;2023-04-30T07:18:33;14.43;;;5.70;;
28176;SDS011;15461;41.652;9.378;2023-04-30T07:20:59;12.40;;;4.95;;
28176;SDS011;15461;41.652;9.378;2023-04-30T07:23:25;28.05;;;10.57;;
28176;SDS011;15461;41.652;9.378;2023-04-30T07:25:51;19.27;;;9.55;;
28176;SDS011;15461;41.652;9.378;2023-04-30T07:28:17;23.13;;;11.23;;
28176;SDS011;15461;41.652;9.378;2023-04-30T07:30:43;20.77;;;11.25;;
28176;SDS011;15461;41.652;9.378;2023-04-30T07:33:08;24.50;;;12.85;;
28176;SDS011;15461;41.652;9.378;2023-04-30T07:35:34;25.83;;;17.35;;
28176;SDS011;15461;41.652;9.378;2023-04-30T07:38:00;23.95;;;16.13;;
28176;SDS011;15461;41.652;9.378;2023-04-30T07:40:26;28.00;;;14.40;;
28176;SDS011;15461;41.652;9.378;2023-04-30T07:42:52;37.15;;;23.60;;
28176;SDS011;15461;41.652;9.378;2023-04-30T07:45:18;37.38;;;19.98;;
28176;SDS011;15461;41.652;9.378;2023-04-30T07:47:44;22.25;;;12.05;;
28176;SDS011;15461;41.652;9.378;2023-04-30T07:50:11;38.60;;;20.58;;
28176;SDS011;15461;41.652;9.378;2023-04-30T07:52:39;24.25;;;12.70;;
28176;SDS011;15461;41.652;9.378;2023-04-30T07:55:05;34.95;;;17.17;;
28176;SDS011;15461;41.652;9.378;2023-04-30T07:57:32;31.35;;;15.93;;
28176;SDS011;15461;41.652;9.378;2023-04-30T07:59:57;18.20;;;7.68;;
28176;SDS011;15461;41.652;9.378;2023-04-30T08:02:23;12.98;;;6.13;;
28176;SDS011;15461;41.652;9.378;2023-04-30T08:04:49;18.55;;;7.95;;
28176;SDS011;15461;41.652;9.378;2023-04-30T08:07:15;17.65;;;6.60;;
28176;SDS011;15461;41.652;9.378;2023-04-30T08:09:41;23.85;;;5.20;;
28176;SDS011;15461;41.652;9.378;2023-04-30T08:12:07;13.57;;;5.55;;
28176;SDS011;15461;41.652;9.378;2023-04-30T08:14:34;11.38;;;5.20;;
28176;SDS011;15461;41.652;9.378;2023-04-30T08:16:59;14.60;;;5.22;;
28176;SDS011;15461;41.652;9.378;2023-04-30T08:19:27;14.95;;;5.25;;
28176;SDS011;15461;41.652;9.378;2023-04-30T08:21:53;26.80;;;5.72;;
28176;SDS011;15461;41.652;9.378;2023-04-30T08:24:19;16.58;;;5.38;;
28176;SDS011;15461;41.652;9.378;2023-04-30T08:26:44;31.20;;;7.35;;
28176;SDS011;15461;41.652;9.378;2023-04-30T08:29:10;17.02;;;5.68;;
28176;SDS011;15461;41.652;9.378;2023-04-30T08:31:36;21.00;;;6.15;;
28176;SDS011;15461;41.652;9.378;2023-04-30T08:34:02;18.77;;;6.05;;
28176;SDS011;15461;41.652;9.378;2023-04-30T08:36:28;16.73;;;5.95;;
28176;SDS011;15461;41.652;9.378;2023-04-30T08:38:54;13.10;;;5.35;;
28176;SDS011;15461;41.652;9.378;2023-04-30T08:41:21;25.15;;;6.55;;
28176;SDS011;15461;41.652;9.378;2023-04-30T08:43:51;13.63;;;5.40;;
28176;SDS011;15461;41.652;9.378;2023-04-30T08:46:21;16.58;;;6.88;;
28176;SDS011;15461;41.652;9.378;2023-04-30T08:48:49;16.05;;;6.28;;
28176;SDS011;15461;41.652;9.378;2023-04-30T08:51:15;16.13;;;6.68;;
28176;SDS011;15461;41.652;9.378;2023-04-30T08:53:41;16.95;;;6.30;;
28176;SDS011;15461;41.652;9.378;2023-04-30T08:56:10;21.85;;;6.22;;
28176;SDS011;15461;41.652;9.378;2023-04-30T08:58:36;13.52;;;5.53;;
28176;SDS011;15461;41.652;9.378;2023-04-30T09:01:02;14.93;;;6.28;;
28176;SDS011;15461;41.652;9.378;2023-04-30T09:03:31;23.58;;;5.78;;
28176;SDS011;15461;41.652;9.378;2023-04-30T09:05:57;14.35;;;5.65;;
28176;SDS011;15461;41.652;9.378;2023-04-30T09:08:39;20.55;;;6.53;;
28176;SDS011;15461;41.652;9.378;2023-04-30T09:11:22;17.40;;;5.43;;
28176;SDS011;15461;41.652;9.378;2023-04-30T09:13:50;19.88;;;5.63;;
28176;SDS011;15461;41.652;9.378;2023-04-30T09:16:18;15.02;;;6.00;;
28176;SDS011;15461;41.652;9.378;2023-04-30T09:18:44;15.27;;;6.00;;
28176;SDS011;15461;41.652;9.378;2023-04-30T09:21:11;14.63;;;5.95;;
28176;SDS011;15461;41.652;9.378;2023-04-30T09:23:45;16.25;;;5.80;;
28176;SDS011;15461;41.652;9.378;2023-04-30T09:26:27;17.23;;;5.50;;
28176;SDS011;15461;41.652;9.378;2023-04-30T09:29:00;17.58;;;6.07;;
28176;SDS011;15461;41.652;9.378;2023-04-30T09:31:32;12.27;;;4.75;;
28176;SDS011;15461;41.652;9.378;2023-04-30T09:33:59;15.88;;;5.90;;
28176;SDS011;15461;41.652;9.378;2023-04-30T09:36:25;10.85;;;5.35;;
28176;SDS011;15461;41.652;9.378;2023-04-30T09:38:52;13.80;;;5.30;;
28176;SDS011;15461;41.652;9.378;2023-04-30T09:41:24;17.67;;;5.43;;
28176;SDS011;15461;41.652;9.378;2023-04-30T09:43:55;12.52;;;5.57;;
28176;SDS011;15461;41.652;9.378;2023-04-30T09:46:28;14.70;;;5.68;;
28176;SDS011;15461;41.652;9.378;2023-04-30T09:48:56;20.27;;;5.90;;
28176;SDS011;15461;41.652;9.378;2023-04-30T09:51:23;22.40;;;6.65;;
28176;SDS011;15461;41.652;9.378;2023-04-30T09:53:49;20.25;;;6.43;;
28176;SDS011;15461;41.652;9.378;2023-04-30T09:56:19;17.85;;;6.13;;
28176;SDS011;15461;41.652;9.378;2023-04-30T09:58:49;31.60;;;6.87;;
28176;SDS011;15461;41.652;9.378;2023-04-30T10:01:17;18.40;;;6.13;;
28176;SDS011;15461;41.652;9.378;2023-04-30T10:03:44;12.45;;;5.95;;
28176;SDS011;15461;41.652;9.378;2023-04-30T10:06:12;18.48;;;5.95;;
28176;SDS011;15461;41.652;9.378;2023-04-30T10:08:41;14.00;;;5.43;;
28176;SDS011;15461;41.652;9.378;2023-04-30T10:11:09;14.65;;;6.07;;
28176;SDS011;15461;41.652;9.378;2023-04-30T10:13:59;17.55;;;6.00;;
28176;SDS011;15461;41.652;9.378;2023-04-30T10:16:44;10.23;;;6.10;;
28176;SDS011;15461;41.652;9.378;2023-04-30T10:19:24;12.05;;;5.80;;
28176;SDS011;15461;41.652;9.378;2023-04-30T10:21:53;9.00;;;5.70;;
28176;SDS011;15461;41.652;9.378;2023-04-30T10:24:19;11.77;;;5.82;;
28176;SDS011;15461;41.652;9.378;2023-04-30T10:26:46;12.52;;;5.55;;
28176;SDS011;15461;41.652;9.378;2023-04-30T10:29:12;12.73;;;5.68;;
28176;SDS011;15461;41.652;9.378;2023-04-30T10:31:46;11.02;;;5.78;;
28176;SDS011;15461;41.652;9.378;2023-04-30T10:37:13;12.43;;;5.25;;
28176;SDS011;15461;41.652;9.378;2023-04-30T10:39:58;11.38;;;5.13;;
28176;SDS011;15461;41.652;9.378;2023-04-30T10:42:26;11.95;;;5.82;;
28176;SDS011;15461;41.652;9.378;2023-04-30T10:44:52;13.45;;;5.90;;
28176;SDS011;15461;41.652;9.378;2023-04-30T10:47:18;20.50;;;5.80;;
28176;SDS011;15461;41.652;9.378;2023-04-30T10:49:45;13.52;;;5.82;;
28176;SDS011;15461;41.652;9.378;2023-04-30T10:52:13;17.23;;;5.93;;
28176;SDS011;15461;41.652;9.378;2023-04-30T10:54:50;17.27;;;6.07;;
28176;SDS011;15461;41.652;9.378;2023-04-30T10:57:16;17.95;;;6.20;;
28176;SDS011;15461;41.652;9.378;2023-04-30T10:59:51;13.98;;;5.90;;
28176;SDS011;15461;41.652;9.378;2023-04-30T11:02:18;21.45;;;5.97;;
28176;SDS011;15461;41.652;9.378;2023-04-30T11:07:33;14.38;;;5.57;;
28176;SDS011;15461;41.652;9.378;2023-04-30T11:09:59;12.13;;;5.53;;
28176;SDS011;15461;41.652;9.378;2023-04-30T11:12:28;16.85;;;5.38;;
28176;SDS011;15461;41.652;9.378;2023-04-30T11:15:06;12.63;;;4.70;;
28176;SDS011;15461;41.652;9.378;2023-04-30T11:17:37;14.30;;;5.32;;
28176;SDS011;15461;41.652;9.378;2023-04-30T11:20:03;17.40;;;5.30;;
28176;SDS011;15461;41.652;9.378;2023-04-30T11:22:30;16.13;;;5.57;;
28176;SDS011;15461;41.652;9.378;2023-04-30T11:27:36;10.70;;;5.55;;
28176;SDS011;15461;41.652;9.378;2023-04-30T11:30:03;13.88;;;5.78;;
28176;SDS011;15461;41.652;9.378;2023-04-30T11:35:03;10.85;;;4.75;;
28176;SDS011;15461;41.652;9.378;2023-04-30T11:37:31;10.25;;;5.18;;
28176;SDS011;15461;41.652;9.378;2023-04-30T11:40:05;10.43;;;5.28;;
28176;SDS011;15461;41.652;9.378;2023-04-30T11:42:33;10.98;;;5.50;;
28176;SDS011;15461;41.652;9.378;2023-04-30T11:45:09;14.40;;;5.43;;
28176;SDS011;15461;41.652;9.378;2023-04-30T11:47:48;13.20;;;5.47;;
28176;SDS011;15461;41.652;9.378;2023-04-30T11:50:16;7.60;;;4.85;;
28176;SDS011;15461;41.652;9.378;2023-04-30T11:52:52;12.38;;;5.20;;
28176;SDS011;15461;41.652;9.378;2023-04-30T11:55:19;12.15;;;5.38;;
28176;SDS011;15461;41.652;9.378;2023-04-30T11:57:47;15.77;;;5.75;;
28176;SDS011;15461;41.652;9.378;2023-04-30T12:00:16;7.88;;;5.25;;
28176;SDS011;15461;41.652;9.378;2023-04-30T12:02:44;16.15;;;5.55;;
28176;SDS011;15461;41.652;9.378;2023-04-30T12:05:18;16.02;;;5.43;;
28176;SDS011;15461;41.652;9.378;2023-04-30T12:07:53;18.10;;;6.30;;
28176;SDS011;15461;41.652;9.378;2023-04-30T12:10:31;20.35;;;6.18;;
28176;SDS011;15461;41.652;9.378;2023-04-30T12:12:57;15.38;;;6.60;;
28176;SDS011;15461;41.652;9.378;2023-04-30T12:15:24;10.05;;;5.85;;
28176;SDS011;15461;41.652;9.378;2023-04-30T12:17:51;16.35;;;6.57;;
28176;SDS011;15461;41.652;9.378;2023-04-30T12:20:19;19.23;;;6.50;;
28176;SDS011;15461;41.652;9.378;2023-04-30T12:22:46;12.23;;;5.32;;
28176;SDS011;15461;41.652;9.378;2023-04-30T12:25:13;11.93;;;6.00;;
28176;SDS011;15461;41.652;9.378;2023-04-30T12:27:44;11.60;;;5.60;;
28176;SDS011;15461;41.652;9.378;2023-04-30T12:30:11;22.17;;;6.30;;
28176;SDS011;15461;41.652;9.378;2023-04-30T12:32:38;11.15;;;6.03;;
28176;SDS011;15461;41.652;9.378;2023-04-30T12:35:16;13.23;;;6.30;;
28176;SDS011;15461;41.652;9.378;2023-04-30T12:37:47;20.52;;;7.07;;
28176;SDS011;15461;41.652;9.378;2023-04-30T12:40:17;14.53;;;6.13;;
28176;SDS011;15461;41.652;9.378;2023-04-30T12:42:44;14.20;;;6.65;;
28176;SDS011;15461;41.652;9.378;2023-04-30T12:45:40;17.85;;;7.15;;
28176;SDS011;15461;41.652;9.378;2023-04-30T12:48:21;22.67;;;6.60;;
28176;SDS011;15461;41.652;9.378;2023-04-30T12:50:52;15.45;;;6.70;;
28176;SDS011;15461;41.652;9.378;2023-04-30T12:53:25;12.07;;;6.28;;
28176;SDS011;15461;41.652;9.378;2023-04-30T12:58:44;13.55;;;6.32;;
28176;SDS011;15461;41.652;9.378;2023-04-30T13:01:13;17.92;;;6.22;;
28176;SDS011;15461;41.652;9.378;2023-04-30T13:03:41;17.92;;;6.57;;
28176;SDS011;15461;41.652;9.378;2023-04-30T13:06:07;12.50;;;6.03;;
28176;SDS011;15461;41.652;9.378;2023-04-30T13:08:34;12.52;;;6.32;;
28176;SDS011;15461;41.652;9.378;2023-04-30T13:11:00;11.80;;;6.13;;
28176;SDS011;15461;41.652;9.378;2023-04-30T13:13:26;14.30;;;7.00;;
28176;SDS011;15461;41.652;9.378;2023-04-30T13:15:52;17.65;;;6.70;;
28176;SDS011;15461;41.652;9.378;2023-04-30T13:18:18;14.10;;;6.45;;
28176;SDS011;15461;41.652;9.378;2023-04-30T13:20:44;10.93;;;6.47;;
28176;SDS011;15461;41.652;9.378;2023-04-30T13:23:10;13.57;;;6.43;;
28176;SDS011;15461;41.652;9.378;2023-04-30T13:25:36;11.50;;;6.32;;
28176;SDS011;15461;41.652;9.378;2023-04-30T13:28:03;12.95;;;6.30;;
28176;SDS011;15461;41.652;9.378;2023-04-30T13:30:29;16.67;;;6.90;;
28176;SDS011;15461;41.652;9.378;2023-04-30T13:32:55;13.48;;;6.13;;
28176;SDS011;15461;41.652;9.378;2023-04-30T13:35:22;17.55;;;6.78;;
28176;SDS011;15461;41.652;9.378;2023-04-30T13:37:49;15.98;;;6.53;;
28176;SDS011;15461;41.652;9.378;2023-04-30T13:40:17;17.80;;;7.03;;
28176;SDS011;15461;41.652;9.378;2023-04-30T13:42:44;13.82;;;6.30;;
28176;SDS011;15461;41.652;9.378;2023-04-30T13:45:11;15.95;;;6.45;;
28176;SDS011;15461;41.652;9.378;2023-04-30T13:47:37;15.82;;;7.07;;
28176;SDS011;15461;41.652;9.378;2023-04-30T13:50:04;21.52;;;7.05;;
28176;SDS011;15461;41.652;9.378;2023-04-30T13:52:32;11.13;;;6.57;;
28176;SDS011;15461;41.652;9.378;2023-04-30T13:54:58;12.65;;;6.15;;
28176;SDS011;15461;41.652;9.378;2023-04-30T13:57:24;13.93;;;6.20;;
28176;SDS011;15461;41.652;9.378;2023-04-30T13:59:50;16.15;;;6.95;;
28176;SDS011;15461;41.652;9.378;2023-04-30T14:02:17;16.40;;;6.68;;
28176;SDS011;15461;41.652;9.378;2023-04-30T14:04:43;19.45;;;7.43;;
28176;SDS011;15461;41.652;9.378;2023-04-30T14:07:09;23.55;;;6.60;;
28176;SDS011;15461;41.652;9.378;2023-04-30T14:09:35;16.70;;;7.00;;
28176;SDS011;15461;41.652;9.378;2023-04-30T14:12:01;16.02;;;7.47;;
28176;SDS011;15461;41.652;9.378;2023-04-30T14:14:27;17.50;;;7.22;;
28176;SDS011;15461;41.652;9.378;2023-04-30T14:16:54;14.82;;;7.65;;
28176;SDS011;15461;41.652;9.378;2023-04-30T14:19:20;18.58;;;7.72;;
28176;SDS011;15461;41.652;9.378;2023-04-30T14:21:47;14.13;;;7.32;;
28176;SDS011;15461;41.652;9.378;2023-04-30T14:24:13;20.08;;;7.82;;
28176;SDS011;15461;41.652;9.378;2023-04-30T14:26:43;16.67;;;7.20;;
28176;SDS011;15461;41.652;9.378;2023-04-30T14:29:12;20.47;;;8.03;;
28176;SDS011;15461;41.652;9.378;2023-04-30T14:31:38;11.70;;;7.63;;
28176;SDS011;15461;41.652;9.378;2023-04-30T14:34:04;17.80;;;8.18;;
28176;SDS011;15461;41.652;9.378;2023-04-30T14:36:30;16.83;;;7.50;;
28176;SDS011;15461;41.652;9.378;2023-04-30T14:38:56;12.60;;;6.70;;
28176;SDS011;15461;41.652;9.378;2023-04-30T14:41:22;15.25;;;6.95;;
28176;SDS011;15461;41.652;9.378;2023-04-30T14:43:48;15.32;;;7.07;;
28176;SDS011;15461;41.652;9.378;2023-04-30T14:46:16;15.85;;;6.55;;
28176;SDS011;15461;41.652;9.378;2023-04-30T14:48:43;20.05;;;8.00;;
28176;SDS011;15461;41.652;9.378;2023-04-30T14:51:09;61.63;;;18.92;;
28176;SDS011;15461;41.652;9.378;2023-04-30T14:53:35;28.08;;;11.25;;
28176;SDS011;15461;41.652;9.378;2023-04-30T14:56:01;67.57;;;14.57;;
28176;SDS011;15461;41.652;9.378;2023-04-30T14:58:28;16.88;;;6.93;;
28176;SDS011;15461;41.652;9.378;2023-04-30T15:00:54;12.60;;;7.25;;
28176;SDS011;15461;41.652;9.378;2023-04-30T15:03:20;14.45;;;6.22;;